Nearby METAR Reports

 

KMQS - Coatesville, Pennsylvania, USA
Distance from station: NW 12mi, 19km
Updated: Thu, 13-Aug-2020 6:35am EDT
Mist, Clear
Mist, Clear
 Wind from calm
Wind: Calm
Temperature: 70°F , 21°C
Dew Point: 70°F , 21°C
Humidity: 100%
Barometer: 30.12 inHg , 1020 hPa
Summary: Mist
Clouds: Clear
Visibility: 5 miles , 8 km
2020/08/13 10:35 KMQS 131035Z AUTO 00000KT 5SM BR CLR 21/21 A3012 RMK AO2
KOQN - West Chester, Pennsylvania, USA
Distance from station: NE 13mi, 21km
Updated: Thu, 13-Aug-2020 6:35am EDT
Clear
Clear
 Wind from calm
Wind: Calm
Temperature: 72°F , 22°C
Dew Point: 70°F , 21°C
Humidity: 94%
Barometer: 30.10 inHg , 1019.3 hPa
Clouds: Clear
Visibility: 7 miles , 11 km
2020/08/13 10:35 KOQN 131035Z AUTO 00000KT 7SM CLR 22/21 A3010 RMK AO2
 
KILG - Wilmington, Delaware, USA
Distance from station: SSE 14mi, 23km
Updated: Thu, 13-Aug-2020 5:51am EDT
Clear
Clear
 Wind from calm
Wind: Calm
Temperature: 73°F , 23°C
Dew Point: 72°F , 22°C
Humidity: 94%
Barometer: 30.08 inHg , 1018.6 hPa
Clouds: Clear
Visibility: 10 miles , 16 km
2020/08/13 09:51 KILG 130951Z AUTO 00000KT 10SM CLR 23/22 A3008 RMK AO2 SLP183 T02330222
KPHL - Philadelphia, Pennsylvania, USA
Distance from station: E 27mi, 43km
Updated: Thu, 13-Aug-2020 5:54am EDT
Mostly cloudy
Mostly cloudy
 Wind from calm
Wind: Calm
Temperature: 75°F , 24°C
Dew Point: 72°F , 22°C
Humidity: 89%
Barometer: 30.07 inHg , 1018.3 hPa
Clouds: Mostly cloudy
Visibility: 10 miles , 16 km
Cloud details: Few Clouds 5500 ft
Mostly cloudy 15000 ft
Mostly cloudy 21000 ft
2020/08/13 09:54 KPHL 130954Z 00000KT 10SM FEW055 BKN150 BKN210 24/22 A3007 RMK AO2 SLP180 T02390222 $
 
KPTW - Pottstown, Pennsylvania, USA
Distance from station: NNE 29mi, 47km
Updated: Thu, 13-Aug-2020 5:54am EDT
Clear
Clear
 Wind from calm
Wind: Calm
Temperature: 72°F , 22°C
Dew Point: 70°F , 21°C
Humidity: 94%
Barometer: 30.10 inHg , 1019.3 hPa
Clouds: Clear
Visibility: 7 miles , 11 km
2020/08/13 09:54 KPTW 130954Z AUTO 00000KT 7SM CLR 22/21 A3010 RMK AO2 SLP186 T02170211 $
KLOM - Philly Wings F, Pennsylvania, USA
Distance from station: NE 32mi, 52km
Updated: Thu, 13-Aug-2020 6:35am EDT
Mist, Clear
Mist, Clear
 Wind from calm
Wind: Calm
Temperature: 72°F , 22°C
Dew Point: 72°F , 22°C
Humidity: 100%
Barometer: 30.09 inHg , 1019 hPa
Summary: Mist
Clouds: Clear
Visibility: 3 1/2 miles , 5.6 km
2020/08/13 10:35 KLOM 131035Z AUTO 00000KT 3 1/2SM BR CLR 22/22 A3009 RMK AO2 T02210221
 
KAPG - Aberdeen/Phillip, Maryland, USA
Distance from station: SW 34mi, 55km
Updated: Thu, 13-Aug-2020 5:58am EDT
Mostly cloudy
Mostly cloudy
 Wind from calm
Wind: Calm
Temperature: 72°F , 22°C
Dew Point: 72°F , 22°C
Humidity: 100%
Barometer: 30.06 inHg , 1017.9 hPa
Clouds: Mostly cloudy
Visibility: 10 miles , 16 km
Cloud details: Few Clouds 1200 ft
Partly cloudy 2500 ft
Mostly cloudy 8000 ft
2020/08/13 09:58 KAPG 130958Z 00000KT 10SM FEW012 SCT025 BKN080 22/22 A3006 RMK AO2A SLP182 T02210219 $
KLNS - Lancaster, Pennsylvania, USA
Distance from station: WNW 35mi, 57km
Updated: Thu, 13-Aug-2020 5:53am EDT
Clear
Clear
 Wind from calm
Wind: Calm
Temperature: 73°F , 23°C
Dew Point: 70°F , 21°C
Humidity: 89%
Barometer: 30.08 inHg , 1018.6 hPa
Clouds: Clear
Visibility: 8 miles , 13 km
2020/08/13 09:53 KLNS 130953Z 00000KT 8SM CLR 23/21 A3008 RMK AO2 SLP184 T02280211
 
KRDG - Reading, Pennsylvania, USA
Distance from station: NNW 38mi, 62km
Updated: Thu, 13-Aug-2020 5:54am EDT
Clear
Clear
 Wind from N
Wind: N 5 mph , 7 km/h
Temperature: 75°F , 24°C
Dew Point: 68°F , 20°C
Humidity: 78%
Barometer: 30.07 inHg , 1018.3 hPa
Clouds: Clear
Visibility: 10 miles , 16 km
2020/08/13 09:54 KRDG 130954Z AUTO 36004KT 10SM CLR 24/20 A3007 RMK AO2 SLP184 T02390200
KPNE - Philadelphia/Ne, Pennsylvania, USA
Distance from station: ENE 42mi, 67km
Updated: Thu, 13-Aug-2020 5:54am EDT
Mostly cloudy
Mostly cloudy
 Wind from calm
Wind: Calm
Temperature: 73°F , 23°C
Dew Point: 73°F , 23°C
Humidity: 100%
Barometer: 30.08 inHg , 1018.6 hPa
Clouds: Mostly cloudy
Visibility: 10 miles , 16 km
Cloud details: Mostly cloudy 4600 ft
2020/08/13 09:54 KPNE 130954Z AUTO 00000KT 10SM BKN046 23/23 A3008 RMK AO2 SLP186 T02280228
 
KCKZ - Perkasie, Pennsylvania, USA
Distance from station: NNE 45mi, 72km
Updated: Thu, 13-Aug-2020 6:35am EDT
Few Clouds
Few Clouds
 Wind from calm
Wind: Calm
Temperature: 72°F , 22°C
Dew Point: 72°F , 22°C
Humidity: 100%
Barometer: 30.11 inHg , 1019.6 hPa
Clouds: Few Clouds
Visibility: 10 miles , 16 km
Cloud details: Few Clouds 5000 ft
2020/08/13 10:35 KCKZ 131035Z AUTO 00000KT 10SM FEW050 22/22 A3011 RMK AO2
KUKT - Quakertown Arp, Pennsylvania, USA
Distance from station: NNE 45mi, 73km
Updated: Thu, 13-Aug-2020 6:35am EDT
Overcast
Overcast
 Wind from NNE
Wind: NNE 5 mph , 7 km/h
Temperature: 73°F , 23°C
Dew Point: 68°F , 20°C
Humidity: 83%
Barometer: 30.11 inHg , 1019.6 hPa
Clouds: Overcast
Visibility: 10 miles , 16 km
Cloud details: Mostly cloudy 4600 ft
Overcast 5500 ft
2020/08/13 10:35 KUKT 131035Z AUTO 03004KT 10SM BKN046 OVC055 23/20 A3011 RMK A01
 
KDYL - Doylestown, Pennsylvania, USA
Distance from station: NE 47mi, 76km
Updated: Thu, 13-Aug-2020 5:54am EDT
Mostly cloudy
Mostly cloudy
 Wind from calm
Wind: Calm
Temperature: 75°F , 24°C
Dew Point: 70°F , 21°C
Humidity: 83%
Barometer: 30.08 inHg , 1018.6 hPa
Clouds: Mostly cloudy
Visibility: 10 miles , 16 km
Cloud details: Mostly cloudy 4500 ft
Mostly cloudy 5500 ft
2020/08/13 09:54 KDYL 130954Z AUTO 00000KT 10SM BKN045 BKN055 24/21 A3008 RMK AO2 SLP179 T02390211
KMIV - Millville, New Jersey, USA
Distance from station: SE 48mi, 77km
Updated: Thu, 13-Aug-2020 6:38am EDT
Mist, Overcast
Mist, Overcast
 Wind from calm
Wind: Calm
Temperature: 73°F , 23°C
Dew Point: 73°F , 23°C
Humidity: 100%
Barometer: 30.08 inHg , 1018.6 hPa
Summary: Mist
Clouds: Overcast
Visibility: 3/4 mile , 1.2 km
Cloud details: Overcast 200 ft
2020/08/13 10:38 KMIV 131038Z AUTO 00000KT 3/4SM BR VV002 23/23 A3008 RMK AO2 T02330228
 
KVAY - Mount Holly, New Jersey, USA
Distance from station: E 48mi, 78km
Updated: Thu, 13-Aug-2020 5:54am EDT
Mist, Few clouds
Mist, Few clouds
 Wind from calm
Wind: Calm
Temperature: 73°F , 23°C
Dew Point: 72°F , 22°C
Humidity: 94%
Barometer: 30.07 inHg , 1018.3 hPa
Summary: Mist
Clouds: Few Clouds
Visibility: 6 miles , 10 km
Cloud details: Few Clouds 12000 ft
2020/08/13 09:54 KVAY 130954Z AUTO 00000KT 6SM BR FEW120 23/22 A3007 RMK AO2 SLP181 T02280222 $